sensor_id;sensor_type;location;lat;lon;timestamp;P1;durP1;ratioP1;P2;durP2;ratioP2
15764;SDS011;7983;50.744;7.086;2023-02-02T00:01:30;8.80;;;2.92;;
15764;SDS011;7983;50.744;7.086;2023-02-02T00:03:56;7.53;;;2.73;;
15764;SDS011;7983;50.744;7.086;2023-02-02T00:06:25;6.47;;;2.83;;
15764;SDS011;7983;50.744;7.086;2023-02-02T00:08:52;11.23;;;3.30;;
15764;SDS011;7983;50.744;7.086;2023-02-02T00:11:23;10.23;;;3.27;;
15764;SDS011;7983;50.744;7.086;2023-02-02T00:13:49;10.63;;;3.28;;
15764;SDS011;7983;50.744;7.086;2023-02-02T00:18:57;6.30;;;2.73;;
15764;SDS011;7983;50.744;7.086;2023-02-02T00:21:26;10.30;;;3.37;;
15764;SDS011;7983;50.744;7.086;2023-02-02T00:23:52;7.73;;;3.07;;
15764;SDS011;7983;50.744;7.086;2023-02-02T00:26:18;9.73;;;3.30;;
15764;SDS011;7983;50.744;7.086;2023-02-02T00:28:44;9.57;;;2.90;;
15764;SDS011;7983;50.744;7.086;2023-02-02T00:31:10;12.40;;;4.00;;
15764;SDS011;7983;50.744;7.086;2023-02-02T00:33:36;8.60;;;3.30;;
15764;SDS011;7983;50.744;7.086;2023-02-02T00:36:04;8.32;;;3.20;;
15764;SDS011;7983;50.744;7.086;2023-02-02T00:38:32;11.40;;;3.80;;
15764;SDS011;7983;50.744;7.086;2023-02-02T00:41:02;9.82;;;3.40;;
15764;SDS011;7983;50.744;7.086;2023-02-02T00:43:28;7.57;;;2.80;;
15764;SDS011;7983;50.744;7.086;2023-02-02T00:45:55;6.40;;;2.67;;
15764;SDS011;7983;50.744;7.086;2023-02-02T00:48:23;6.70;;;2.67;;
15764;SDS011;7983;50.744;7.086;2023-02-02T00:50:52;6.50;;;2.60;;
15764;SDS011;7983;50.744;7.086;2023-02-02T00:53:20;8.60;;;3.13;;
15764;SDS011;7983;50.744;7.086;2023-02-02T00:55:48;9.67;;;3.67;;
15764;SDS011;7983;50.744;7.086;2023-02-02T00:58:15;9.43;;;3.38;;
15764;SDS011;7983;50.744;7.086;2023-02-02T01:00:41;6.03;;;2.78;;
15764;SDS011;7983;50.744;7.086;2023-02-02T01:03:07;8.23;;;2.90;;
15764;SDS011;7983;50.744;7.086;2023-02-02T01:05:33;8.07;;;3.05;;
15764;SDS011;7983;50.744;7.086;2023-02-02T01:07:59;11.67;;;3.50;;
15764;SDS011;7983;50.744;7.086;2023-02-02T01:10:25;6.63;;;2.83;;
15764;SDS011;7983;50.744;7.086;2023-02-02T01:12:51;8.27;;;3.00;;
15764;SDS011;7983;50.744;7.086;2023-02-02T01:15:17;6.33;;;2.70;;
15764;SDS011;7983;50.744;7.086;2023-02-02T01:17:45;8.43;;;3.10;;
15764;SDS011;7983;50.744;7.086;2023-02-02T01:20:14;11.23;;;3.70;;
15764;SDS011;7983;50.744;7.086;2023-02-02T01:22:43;10.77;;;4.07;;
15764;SDS011;7983;50.744;7.086;2023-02-02T01:25:09;9.77;;;3.70;;
15764;SDS011;7983;50.744;7.086;2023-02-02T01:27:34;7.03;;;3.33;;
15764;SDS011;7983;50.744;7.086;2023-02-02T01:30:05;8.90;;;3.43;;
15764;SDS011;7983;50.744;7.086;2023-02-02T01:32:31;6.60;;;2.90;;
15764;SDS011;7983;50.744;7.086;2023-02-02T01:34:57;12.57;;;3.83;;
15764;SDS011;7983;50.744;7.086;2023-02-02T01:37:22;8.15;;;3.28;;
15764;SDS011;7983;50.744;7.086;2023-02-02T01:39:48;7.57;;;3.17;;
15764;SDS011;7983;50.744;7.086;2023-02-02T01:42:15;11.68;;;3.50;;
15764;SDS011;7983;50.744;7.086;2023-02-02T01:47:21;10.20;;;3.40;;
15764;SDS011;7983;50.744;7.086;2023-02-02T01:49:50;7.40;;;3.00;;
15764;SDS011;7983;50.744;7.086;2023-02-02T01:52:18;7.87;;;3.17;;
15764;SDS011;7983;50.744;7.086;2023-02-02T01:54:49;9.63;;;3.17;;
15764;SDS011;7983;50.744;7.086;2023-02-02T01:57:22;7.43;;;3.27;;
15764;SDS011;7983;50.744;7.086;2023-02-02T01:59:51;5.63;;;3.03;;
15764;SDS011;7983;50.744;7.086;2023-02-02T02:02:22;10.80;;;3.40;;
15764;SDS011;7983;50.744;7.086;2023-02-02T02:04:49;9.17;;;3.37;;
15764;SDS011;7983;50.744;7.086;2023-02-02T02:07:18;10.47;;;3.50;;
15764;SDS011;7983;50.744;7.086;2023-02-02T02:09:43;7.00;;;3.10;;
15764;SDS011;7983;50.744;7.086;2023-02-02T02:12:10;9.27;;;3.80;;
15764;SDS011;7983;50.744;7.086;2023-02-02T02:14:43;9.07;;;3.00;;
15764;SDS011;7983;50.744;7.086;2023-02-02T02:17:40;9.10;;;3.50;;
15764;SDS011;7983;50.744;7.086;2023-02-02T02:29:10;6.83;;;3.00;;
15764;SDS011;7983;50.744;7.086;2023-02-02T02:37:22;9.50;;;3.23;;
15764;SDS011;7983;50.744;7.086;2023-02-02T02:40:36;12.57;;;4.13;;
15764;SDS011;7983;50.744;7.086;2023-02-02T02:42:49;10.83;;;4.23;;
15764;SDS011;7983;50.744;7.086;2023-02-02T02:45:20;9.77;;;4.10;;
15764;SDS011;7983;50.744;7.086;2023-02-02T02:47:51;12.87;;;4.30;;
15764;SDS011;7983;50.744;7.086;2023-02-02T02:50:17;8.93;;;3.67;;
15764;SDS011;7983;50.744;7.086;2023-02-02T02:52:43;11.03;;;3.60;;
15764;SDS011;7983;50.744;7.086;2023-02-02T02:55:10;10.00;;;4.20;;
15764;SDS011;7983;50.744;7.086;2023-02-02T03:01:09;8.83;;;3.70;;
15764;SDS011;7983;50.744;7.086;2023-02-02T03:08:31;9.03;;;4.30;;
15764;SDS011;7983;50.744;7.086;2023-02-02T03:11:06;11.55;;;4.28;;
15764;SDS011;7983;50.744;7.086;2023-02-02T03:13:35;8.50;;;4.70;;
15764;SDS011;7983;50.744;7.086;2023-02-02T03:16:02;8.82;;;4.20;;
15764;SDS011;7983;50.744;7.086;2023-02-02T03:18:29;8.93;;;4.00;;
15764;SDS011;7983;50.744;7.086;2023-02-02T03:20:56;9.35;;;3.90;;
15764;SDS011;7983;50.744;7.086;2023-02-02T03:23:22;10.07;;;3.70;;
15764;SDS011;7983;50.744;7.086;2023-02-02T03:25:51;12.10;;;4.37;;
15764;SDS011;7983;50.744;7.086;2023-02-02T03:28:17;11.97;;;4.57;;
15764;SDS011;7983;50.744;7.086;2023-02-02T03:30:44;9.57;;;4.65;;
15764;SDS011;7983;50.744;7.086;2023-02-02T03:33:11;12.03;;;4.60;;
15764;SDS011;7983;50.744;7.086;2023-02-02T03:35:40;6.93;;;3.67;;
15764;SDS011;7983;50.744;7.086;2023-02-02T03:38:06;8.63;;;3.70;;
15764;SDS011;7983;50.744;7.086;2023-02-02T03:40:34;11.32;;;3.97;;
15764;SDS011;7983;50.744;7.086;2023-02-02T03:42:59;8.07;;;3.43;;
15764;SDS011;7983;50.744;7.086;2023-02-02T03:45:26;8.53;;;3.43;;
15764;SDS011;7983;50.744;7.086;2023-02-02T03:47:52;7.73;;;3.73;;
15764;SDS011;7983;50.744;7.086;2023-02-02T03:50:17;7.90;;;3.80;;
15764;SDS011;7983;50.744;7.086;2023-02-02T03:52:45;8.80;;;3.43;;
15764;SDS011;7983;50.744;7.086;2023-02-02T03:55:13;7.33;;;3.90;;
15764;SDS011;7983;50.744;7.086;2023-02-02T03:57:43;8.47;;;3.60;;
15764;SDS011;7983;50.744;7.086;2023-02-02T04:00:11;9.43;;;3.50;;
15764;SDS011;7983;50.744;7.086;2023-02-02T04:02:40;7.13;;;3.43;;
15764;SDS011;7983;50.744;7.086;2023-02-02T04:05:08;7.30;;;3.10;;
15764;SDS011;7983;50.744;7.086;2023-02-02T04:07:34;10.53;;;4.30;;
15764;SDS011;7983;50.744;7.086;2023-02-02T04:10:02;9.17;;;3.93;;
15764;SDS011;7983;50.744;7.086;2023-02-02T04:12:28;13.87;;;4.23;;
15764;SDS011;7983;50.744;7.086;2023-02-02T04:14:54;10.97;;;4.00;;
15764;SDS011;7983;50.744;7.086;2023-02-02T04:17:21;9.17;;;3.70;;
15764;SDS011;7983;50.744;7.086;2023-02-02T04:19:52;9.60;;;3.80;;
15764;SDS011;7983;50.744;7.086;2023-02-02T04:22:24;10.57;;;3.90;;
15764;SDS011;7983;50.744;7.086;2023-02-02T04:24:50;11.97;;;4.07;;
15764;SDS011;7983;50.744;7.086;2023-02-02T04:27:18;12.67;;;4.50;;
15764;SDS011;7983;50.744;7.086;2023-02-02T04:29:46;8.47;;;3.80;;
15764;SDS011;7983;50.744;7.086;2023-02-02T04:32:17;12.40;;;3.73;;
15764;SDS011;7983;50.744;7.086;2023-02-02T04:34:45;8.35;;;3.60;;
15764;SDS011;7983;50.744;7.086;2023-02-02T04:37:13;9.90;;;3.57;;
15764;SDS011;7983;50.744;7.086;2023-02-02T04:39:43;7.85;;;3.55;;
15764;SDS011;7983;50.744;7.086;2023-02-02T04:42:11;11.33;;;4.23;;
15764;SDS011;7983;50.744;7.086;2023-02-02T04:44:40;11.43;;;3.78;;
15764;SDS011;7983;50.744;7.086;2023-02-02T04:47:05;7.87;;;3.83;;
15764;SDS011;7983;50.744;7.086;2023-02-02T04:49:33;7.15;;;3.92;;
15764;SDS011;7983;50.744;7.086;2023-02-02T04:51:59;11.07;;;3.70;;
15764;SDS011;7983;50.744;7.086;2023-02-02T04:54:24;9.57;;;4.10;;
15764;SDS011;7983;50.744;7.086;2023-02-02T04:56:52;11.87;;;3.37;;
15764;SDS011;7983;50.744;7.086;2023-02-02T04:59:22;12.67;;;4.30;;
15764;SDS011;7983;50.744;7.086;2023-02-02T05:01:48;9.93;;;4.00;;
15764;SDS011;7983;50.744;7.086;2023-02-02T05:04:14;14.20;;;4.50;;
15764;SDS011;7983;50.744;7.086;2023-02-02T05:06:40;8.97;;;4.60;;
15764;SDS011;7983;50.744;7.086;2023-02-02T05:09:09;9.97;;;4.07;;
15764;SDS011;7983;50.744;7.086;2023-02-02T05:11:39;10.80;;;4.43;;
15764;SDS011;7983;50.744;7.086;2023-02-02T05:14:05;8.33;;;4.00;;
15764;SDS011;7983;50.744;7.086;2023-02-02T05:16:33;9.43;;;4.20;;
15764;SDS011;7983;50.744;7.086;2023-02-02T05:18:58;9.33;;;3.83;;
15764;SDS011;7983;50.744;7.086;2023-02-02T05:21:24;11.70;;;4.07;;
15764;SDS011;7983;50.744;7.086;2023-02-02T05:23:52;14.87;;;5.80;;
15764;SDS011;7983;50.744;7.086;2023-02-02T05:26:19;11.40;;;4.07;;
15764;SDS011;7983;50.744;7.086;2023-02-02T05:28:47;11.07;;;4.27;;
15764;SDS011;7983;50.744;7.086;2023-02-02T05:31:13;8.30;;;3.73;;
15764;SDS011;7983;50.744;7.086;2023-02-02T05:33:39;8.07;;;3.77;;
15764;SDS011;7983;50.744;7.086;2023-02-02T05:36:05;5.63;;;3.80;;
15764;SDS011;7983;50.744;7.086;2023-02-02T05:38:31;5.57;;;3.37;;
15764;SDS011;7983;50.744;7.086;2023-02-02T05:40:56;9.17;;;3.70;;
15764;SDS011;7983;50.744;7.086;2023-02-02T05:43:26;7.53;;;3.87;;
15764;SDS011;7983;50.744;7.086;2023-02-02T05:45:55;12.43;;;4.67;;
15764;SDS011;7983;50.744;7.086;2023-02-02T05:48:24;8.23;;;4.07;;
15764;SDS011;7983;50.744;7.086;2023-02-02T05:53:29;7.90;;;3.60;;
15764;SDS011;7983;50.744;7.086;2023-02-02T05:55:55;11.73;;;4.20;;
15764;SDS011;7983;50.744;7.086;2023-02-02T05:58:24;10.77;;;4.07;;
15764;SDS011;7983;50.744;7.086;2023-02-02T06:00:50;7.97;;;3.80;;
15764;SDS011;7983;50.744;7.086;2023-02-02T06:03:16;7.90;;;3.70;;
15764;SDS011;7983;50.744;7.086;2023-02-02T06:05:41;9.67;;;4.10;;
15764;SDS011;7983;50.744;7.086;2023-02-02T06:08:07;6.80;;;3.90;;
15764;SDS011;7983;50.744;7.086;2023-02-02T06:10:32;9.53;;;4.00;;
15764;SDS011;7983;50.744;7.086;2023-02-02T06:12:58;10.83;;;4.60;;
15764;SDS011;7983;50.744;7.086;2023-02-02T06:15:26;12.40;;;4.67;;
15764;SDS011;7983;50.744;7.086;2023-02-02T06:17:52;9.97;;;4.47;;
15764;SDS011;7983;50.744;7.086;2023-02-02T06:20:18;8.97;;;4.43;;
15764;SDS011;7983;50.744;7.086;2023-02-02T06:22:44;10.00;;;4.50;;
15764;SDS011;7983;50.744;7.086;2023-02-02T06:25:09;12.67;;;4.97;;
15764;SDS011;7983;50.744;7.086;2023-02-02T06:27:42;11.40;;;4.80;;
15764;SDS011;7983;50.744;7.086;2023-02-02T06:30:10;10.87;;;4.93;;
15764;SDS011;7983;50.744;7.086;2023-02-02T06:32:37;7.87;;;4.00;;
15764;SDS011;7983;50.744;7.086;2023-02-02T06:35:03;8.33;;;4.10;;
15764;SDS011;7983;50.744;7.086;2023-02-02T06:37:31;10.17;;;4.07;;
15764;SDS011;7983;50.744;7.086;2023-02-02T06:39:58;7.13;;;3.87;;
15764;SDS011;7983;50.744;7.086;2023-02-02T06:42:24;9.50;;;4.33;;
15764;SDS011;7983;50.744;7.086;2023-02-02T06:44:52;11.03;;;4.20;;
15764;SDS011;7983;50.744;7.086;2023-02-02T06:47:17;8.60;;;4.40;;
15764;SDS011;7983;50.744;7.086;2023-02-02T06:49:47;7.53;;;4.30;;
15764;SDS011;7983;50.744;7.086;2023-02-02T06:52:15;7.67;;;3.83;;
15764;SDS011;7983;50.744;7.086;2023-02-02T06:54:45;9.37;;;4.23;;
15764;SDS011;7983;50.744;7.086;2023-02-02T06:57:14;10.70;;;3.90;;
15764;SDS011;7983;50.744;7.086;2023-02-02T06:59:41;11.30;;;4.50;;
15764;SDS011;7983;50.744;7.086;2023-02-02T07:02:10;8.40;;;4.30;;
15764;SDS011;7983;50.744;7.086;2023-02-02T07:04:38;8.90;;;4.10;;
15764;SDS011;7983;50.744;7.086;2023-02-02T07:07:06;8.57;;;4.13;;
15764;SDS011;7983;50.744;7.086;2023-02-02T07:09:32;9.10;;;3.97;;
15764;SDS011;7983;50.744;7.086;2023-02-02T07:11:58;11.80;;;4.70;;
15764;SDS011;7983;50.744;7.086;2023-02-02T07:14:26;8.17;;;4.07;;
15764;SDS011;7983;50.744;7.086;2023-02-02T07:16:54;8.00;;;3.97;;
15764;SDS011;7983;50.744;7.086;2023-02-02T07:19:22;8.87;;;3.87;;
15764;SDS011;7983;50.744;7.086;2023-02-02T07:21:47;5.70;;;3.43;;
15764;SDS011;7983;50.744;7.086;2023-02-02T07:24:16;8.73;;;3.87;;
15764;SDS011;7983;50.744;7.086;2023-02-02T07:26:41;10.20;;;4.30;;
15764;SDS011;7983;50.744;7.086;2023-02-02T07:29:08;7.20;;;3.57;;
15764;SDS011;7983;50.744;7.086;2023-02-02T07:31:39;6.13;;;3.70;;
15764;SDS011;7983;50.744;7.086;2023-02-02T07:34:10;7.00;;;3.73;;
15764;SDS011;7983;50.744;7.086;2023-02-02T07:36:35;9.57;;;4.67;;
15764;SDS011;7983;50.744;7.086;2023-02-02T07:39:03;10.17;;;4.63;;
15764;SDS011;7983;50.744;7.086;2023-02-02T07:41:35;8.53;;;4.03;;
15764;SDS011;7983;50.744;7.086;2023-02-02T07:44:01;9.93;;;4.03;;
15764;SDS011;7983;50.744;7.086;2023-02-02T07:46:30;10.43;;;4.07;;
15764;SDS011;7983;50.744;7.086;2023-02-02T07:48:56;9.00;;;4.20;;
15764;SDS011;7983;50.744;7.086;2023-02-02T07:51:22;7.35;;;3.38;;
15764;SDS011;7983;50.744;7.086;2023-02-02T07:53:50;8.93;;;3.90;;
15764;SDS011;7983;50.744;7.086;2023-02-02T07:58:46;9.43;;;3.80;;
15764;SDS011;7983;50.744;7.086;2023-02-02T08:01:17;8.53;;;3.53;;
15764;SDS011;7983;50.744;7.086;2023-02-02T08:03:44;10.77;;;4.07;;
15764;SDS011;7983;50.744;7.086;2023-02-02T08:09:00;6.87;;;3.47;;
15764;SDS011;7983;50.744;7.086;2023-02-02T08:11:28;6.13;;;3.60;;
15764;SDS011;7983;50.744;7.086;2023-02-02T08:13:57;7.27;;;3.50;;
15764;SDS011;7983;50.744;7.086;2023-02-02T08:16:27;5.85;;;3.35;;
15764;SDS011;7983;50.744;7.086;2023-02-02T08:18:55;9.27;;;3.42;;
15764;SDS011;7983;50.744;7.086;2023-02-02T08:21:21;9.13;;;3.67;;
15764;SDS011;7983;50.744;7.086;2023-02-02T08:23:47;8.87;;;3.60;;
15764;SDS011;7983;50.744;7.086;2023-02-02T08:26:24;9.40;;;3.53;;
15764;SDS011;7983;50.744;7.086;2023-02-02T08:28:52;10.67;;;4.00;;
15764;SDS011;7983;50.744;7.086;2023-02-02T08:31:25;7.10;;;3.63;;
15764;SDS011;7983;50.744;7.086;2023-02-02T08:33:54;10.40;;;3.93;;
15764;SDS011;7983;50.744;7.086;2023-02-02T08:36:22;6.53;;;3.53;;
15764;SDS011;7983;50.744;7.086;2023-02-02T08:38:48;10.70;;;4.07;;
15764;SDS011;7983;50.744;7.086;2023-02-02T08:41:15;7.80;;;3.80;;
15764;SDS011;7983;50.744;7.086;2023-02-02T08:43:45;7.90;;;3.80;;
15764;SDS011;7983;50.744;7.086;2023-02-02T08:46:15;8.57;;;3.87;;
15764;SDS011;7983;50.744;7.086;2023-02-02T08:48:42;7.93;;;3.30;;
15764;SDS011;7983;50.744;7.086;2023-02-02T08:51:11;7.30;;;3.80;;
15764;SDS011;7983;50.744;7.086;2023-02-02T08:53:41;7.45;;;3.90;;
15764;SDS011;7983;50.744;7.086;2023-02-02T08:56:14;8.60;;;3.78;;
15764;SDS011;7983;50.744;7.086;2023-02-02T08:58:44;6.20;;;3.50;;
15764;SDS011;7983;50.744;7.086;2023-02-02T09:01:19;10.80;;;4.43;;
15764;SDS011;7983;50.744;7.086;2023-02-02T09:03:46;9.37;;;4.40;;
15764;SDS011;7983;50.744;7.086;2023-02-02T09:06:17;8.97;;;4.03;;
15764;SDS011;7983;50.744;7.086;2023-02-02T09:08:44;8.67;;;3.93;;
15764;SDS011;7983;50.744;7.086;2023-02-02T09:11:12;8.30;;;4.10;;
15764;SDS011;7983;50.744;7.086;2023-02-02T09:13:40;9.27;;;4.20;;
15764;SDS011;7983;50.744;7.086;2023-02-02T09:16:07;9.77;;;4.20;;
15764;SDS011;7983;50.744;7.086;2023-02-02T09:18:34;8.43;;;4.37;;
15764;SDS011;7983;50.744;7.086;2023-02-02T09:21:00;9.37;;;4.43;;
15764;SDS011;7983;50.744;7.086;2023-02-02T09:23:32;7.37;;;4.00;;
15764;SDS011;7983;50.744;7.086;2023-02-02T09:28:46;8.57;;;4.43;;
15764;SDS011;7983;50.744;7.086;2023-02-02T09:31:18;8.23;;;4.20;;
15764;SDS011;7983;50.744;7.086;2023-02-02T09:33:44;9.03;;;4.90;;
15764;SDS011;7983;50.744;7.086;2023-02-02T09:36:13;7.77;;;4.00;;
15764;SDS011;7983;50.744;7.086;2023-02-02T09:38:41;9.97;;;3.83;;
15764;SDS011;7983;50.744;7.086;2023-02-02T09:49:21;8.50;;;4.50;;
15764;SDS011;7983;50.744;7.086;2023-02-02T09:52:13;8.63;;;4.13;;
15764;SDS011;7983;50.744;7.086;2023-02-02T09:54:46;8.07;;;4.13;;
15764;SDS011;7983;50.744;7.086;2023-02-02T09:57:21;7.07;;;4.00;;
15764;SDS011;7983;50.744;7.086;2023-02-02T09:59:50;8.63;;;4.37;;
15764;SDS011;7983;50.744;7.086;2023-02-02T10:02:21;6.57;;;4.03;;
15764;SDS011;7983;50.744;7.086;2023-02-02T10:04:59;8.18;;;3.88;;
15764;SDS011;7983;50.744;7.086;2023-02-02T10:07:35;7.65;;;3.97;;
15764;SDS011;7983;50.744;7.086;2023-02-02T10:12:56;5.95;;;3.90;;
15764;SDS011;7983;50.744;7.086;2023-02-02T10:18:20;10.00;;;4.00;;
15764;SDS011;7983;50.744;7.086;2023-02-02T10:20:59;6.95;;;3.95;;
15764;SDS011;7983;50.744;7.086;2023-02-02T10:23:37;7.65;;;3.33;;
15764;SDS011;7983;50.744;7.086;2023-02-02T10:26:04;6.53;;;3.22;;
15764;SDS011;7983;50.744;7.086;2023-02-02T10:31:17;6.47;;;3.80;;
15764;SDS011;7983;50.744;7.086;2023-02-02T10:34:10;6.60;;;3.72;;
15764;SDS011;7983;50.744;7.086;2023-02-02T10:36:41;7.00;;;4.00;;
15764;SDS011;7983;50.744;7.086;2023-02-02T10:44:30;4.97;;;3.58;;
15764;SDS011;7983;50.744;7.086;2023-02-02T10:47:12;7.85;;;3.83;;
15764;SDS011;7983;50.744;7.086;2023-02-02T10:49:49;10.65;;;4.68;;
15764;SDS011;7983;50.744;7.086;2023-02-02T10:52:28;9.55;;;4.25;;
15764;SDS011;7983;50.744;7.086;2023-02-02T10:55:09;10.02;;;4.25;;
15764;SDS011;7983;50.744;7.086;2023-02-02T11:00:39;6.95;;;4.43;;
15764;SDS011;7983;50.744;7.086;2023-02-02T11:03:09;6.95;;;4.10;;
15764;SDS011;7983;50.744;7.086;2023-02-02T11:05:41;7.32;;;4.72;;
15764;SDS011;7983;50.744;7.086;2023-02-02T11:11:09;5.78;;;4.07;;
15764;SDS011;7983;50.744;7.086;2023-02-02T11:16:27;6.93;;;3.80;;
15764;SDS011;7983;50.744;7.086;2023-02-02T11:18:57;6.40;;;3.78;;
15764;SDS011;7983;50.744;7.086;2023-02-02T11:26:38;8.63;;;4.10;;
15764;SDS011;7983;50.744;7.086;2023-02-02T11:35:13;7.22;;;3.97;;
15764;SDS011;7983;50.744;7.086;2023-02-02T11:37:52;6.60;;;3.72;;
15764;SDS011;7983;50.744;7.086;2023-02-02T11:43:14;5.72;;;3.58;;
15764;SDS011;7983;50.744;7.086;2023-02-02T11:45:44;7.82;;;4.00;;
15764;SDS011;7983;50.744;7.086;2023-02-02T11:48:19;7.90;;;3.70;;
15764;SDS011;7983;50.744;7.086;2023-02-02T11:50:51;7.38;;;3.47;;
15764;SDS011;7983;50.744;7.086;2023-02-02T11:55:49;8.15;;;3.80;;
15764;SDS011;7983;50.744;7.086;2023-02-02T11:58:22;7.25;;;3.88;;
15764;SDS011;7983;50.744;7.086;2023-02-02T12:00:55;6.03;;;4.15;;
15764;SDS011;7983;50.744;7.086;2023-02-02T12:05:54;7.05;;;3.80;;
15764;SDS011;7983;50.744;7.086;2023-02-02T12:08:22;7.38;;;3.90;;
15764;SDS011;7983;50.744;7.086;2023-02-02T12:11:01;7.32;;;3.72;;
15764;SDS011;7983;50.744;7.086;2023-02-02T12:22:01;9.30;;;4.60;;
15764;SDS011;7983;50.744;7.086;2023-02-02T12:24:31;7.05;;;4.40;;
15764;SDS011;7983;50.744;7.086;2023-02-02T12:30:02;8.52;;;4.25;;
15764;SDS011;7983;50.744;7.086;2023-02-02T12:41:37;7.88;;;4.38;;
15764;SDS011;7983;50.744;7.086;2023-02-02T12:43:43;7.00;;;4.70;;
15764;SDS011;7983;50.744;7.086;2023-02-02T12:46:16;8.00;;;4.13;;
15764;SDS011;7983;50.744;7.086;2023-02-02T12:49:10;6.65;;;3.83;;
15764;SDS011;7983;50.744;7.086;2023-02-02T13:07:39;6.65;;;4.00;;
15764;SDS011;7983;50.744;7.086;2023-02-02T13:15:46;5.40;;;3.50;;
15764;SDS011;7983;50.744;7.086;2023-02-02T13:18:35;8.60;;;3.72;;
15764;SDS011;7983;50.744;7.086;2023-02-02T13:21:16;6.57;;;3.50;;
15764;SDS011;7983;50.744;7.086;2023-02-02T13:23:47;4.85;;;3.08;;
15764;SDS011;7983;50.744;7.086;2023-02-02T13:26:18;6.68;;;3.10;;
15764;SDS011;7983;50.744;7.086;2023-02-02T13:31:22;5.15;;;2.97;;
15764;SDS011;7983;50.744;7.086;2023-02-02T13:33:59;5.78;;;2.83;;
15764;SDS011;7983;50.744;7.086;2023-02-02T13:36:31;4.68;;;2.60;;
15764;SDS011;7983;50.744;7.086;2023-02-02T13:39:14;5.60;;;3.15;;
15764;SDS011;7983;50.744;7.086;2023-02-02T13:41:46;5.32;;;3.00;;
15764;SDS011;7983;50.744;7.086;2023-02-02T13:44:20;5.05;;;2.75;;
15764;SDS011;7983;50.744;7.086;2023-02-02T13:46:56;6.68;;;2.70;;
15764;SDS011;7983;50.744;7.086;2023-02-02T13:49:41;8.50;;;2.60;;
15764;SDS011;7983;50.744;7.086;2023-02-02T13:52:15;5.63;;;2.67;;
15764;SDS011;7983;50.744;7.086;2023-02-02T14:00:45;5.18;;;2.78;;
15764;SDS011;7983;50.744;7.086;2023-02-02T14:03:20;7.35;;;2.63;;
15764;SDS011;7983;50.744;7.086;2023-02-02T14:06:03;4.20;;;2.22;;
15764;SDS011;7983;50.744;7.086;2023-02-02T14:08:37;10.07;;;3.03;;
15764;SDS011;7983;50.744;7.086;2023-02-02T14:11:28;6.22;;;2.45;;
15764;SDS011;7983;50.744;7.086;2023-02-02T14:16:56;5.18;;;1.77;;
15764;SDS011;7983;50.744;7.086;2023-02-02T14:27:01;7.40;;;2.10;;
15764;SDS011;7983;50.744;7.086;2023-02-02T14:34:51;5.60;;;1.88;;
15764;SDS011;7983;50.744;7.086;2023-02-02T14:40:37;6.47;;;1.70;;
15764;SDS011;7983;50.744;7.086;2023-02-02T14:45:43;3.13;;;1.65;;
15764;SDS011;7983;50.744;7.086;2023-02-02T14:48:20;3.75;;;1.50;;
15764;SDS011;7983;50.744;7.086;2023-02-02T14:50:56;3.42;;;1.27;;
15764;SDS011;7983;50.744;7.086;2023-02-02T14:53:31;3.67;;;1.35;;
15764;SDS011;7983;50.744;7.086;2023-02-02T14:58:44;5.25;;;1.58;;
15764;SDS011;7983;50.744;7.086;2023-02-02T15:09:24;3.53;;;1.30;;
15764;SDS011;7983;50.744;7.086;2023-02-02T15:25:14;3.05;;;1.30;;
15764;SDS011;7983;50.744;7.086;2023-02-02T15:30:49;3.75;;;1.33;;
15764;SDS011;7983;50.744;7.086;2023-02-02T15:33:30;3.15;;;1.42;;
15764;SDS011;7983;50.744;7.086;2023-02-02T15:36:04;3.30;;;1.13;;
15764;SDS011;7983;50.744;7.086;2023-02-02T15:38:40;3.35;;;1.20;;
15764;SDS011;7983;50.744;7.086;2023-02-02T15:41:13;3.03;;;1.27;;
15764;SDS011;7983;50.744;7.086;2023-02-02T15:43:45;2.90;;;1.30;;
15764;SDS011;7983;50.744;7.086;2023-02-02T15:46:28;2.58;;;1.05;;
15764;SDS011;7983;50.744;7.086;2023-02-02T15:51:47;2.55;;;1.20;;
15764;SDS011;7983;50.744;7.086;2023-02-02T15:56:53;4.78;;;1.38;;
15764;SDS011;7983;50.744;7.086;2023-02-02T15:59:22;3.17;;;1.30;;
15764;SDS011;7983;50.744;7.086;2023-02-02T16:02:12;2.50;;;1.35;;
15764;SDS011;7983;50.744;7.086;2023-02-02T16:04:48;4.70;;;1.70;;
15764;SDS011;7983;50.744;7.086;2023-02-02T16:07:17;4.72;;;1.77;;
15764;SDS011;7983;50.744;7.086;2023-02-02T16:09:50;3.42;;;1.80;;
15764;SDS011;7983;50.744;7.086;2023-02-02T16:12:21;4.28;;;2.33;;
15764;SDS011;7983;50.744;7.086;2023-02-02T16:14:51;3.97;;;1.80;;
15764;SDS011;7983;50.744;7.086;2023-02-02T16:19:48;2.47;;;1.65;;
15764;SDS011;7983;50.744;7.086;2023-02-02T16:22:16;4.75;;;1.42;;
15764;SDS011;7983;50.744;7.086;2023-02-02T16:24:50;3.05;;;1.20;;
15764;SDS011;7983;50.744;7.086;2023-02-02T16:27:20;3.08;;;1.40;;
15764;SDS011;7983;50.744;7.086;2023-02-02T16:29:51;4.18;;;1.65;;
15764;SDS011;7983;50.744;7.086;2023-02-02T16:32:24;3.60;;;1.38;;
15764;SDS011;7983;50.744;7.086;2023-02-02T16:34:55;5.82;;;1.52;;
15764;SDS011;7983;50.744;7.086;2023-02-02T16:37:28;3.80;;;1.30;;
15764;SDS011;7983;50.744;7.086;2023-02-02T16:45:53;4.47;;;1.77;;
15764;SDS011;7983;50.744;7.086;2023-02-02T16:51:36;6.00;;;2.70;;
15764;SDS011;7983;50.744;7.086;2023-02-02T16:56:22;5.32;;;1.80;;
15764;SDS011;7983;50.744;7.086;2023-02-02T17:01:41;3.40;;;1.48;;
15764;SDS011;7983;50.744;7.086;2023-02-02T17:04:22;5.88;;;1.80;;
15764;SDS011;7983;50.744;7.086;2023-02-02T17:06:50;2.75;;;1.33;;
15764;SDS011;7983;50.744;7.086;2023-02-02T17:09:27;2.65;;;1.35;;
15764;SDS011;7983;50.744;7.086;2023-02-02T17:12:29;4.40;;;1.40;;
15764;SDS011;7983;50.744;7.086;2023-02-02T17:17:20;4.90;;;1.75;;
15764;SDS011;7983;50.744;7.086;2023-02-02T17:19:49;4.75;;;2.10;;
15764;SDS011;7983;50.744;7.086;2023-02-02T17:22:16;4.63;;;2.13;;
15764;SDS011;7983;50.744;7.086;2023-02-02T17:24:47;3.47;;;2.05;;
15764;SDS011;7983;50.744;7.086;2023-02-02T17:27:15;4.50;;;2.10;;
15764;SDS011;7983;50.744;7.086;2023-02-02T17:29:44;3.50;;;1.83;;
15764;SDS011;7983;50.744;7.086;2023-02-02T17:32:11;3.13;;;1.50;;
15764;SDS011;7983;50.744;7.086;2023-02-02T17:34:38;3.65;;;1.70;;
15764;SDS011;7983;50.744;7.086;2023-02-02T17:37:06;3.75;;;1.40;;
15764;SDS011;7983;50.744;7.086;2023-02-02T17:39:34;3.40;;;1.52;;
15764;SDS011;7983;50.744;7.086;2023-02-02T17:41:59;2.88;;;1.48;;
15764;SDS011;7983;50.744;7.086;2023-02-02T17:44:27;3.33;;;1.63;;
15764;SDS011;7983;50.744;7.086;2023-02-02T17:46:53;3.38;;;1.55;;
15764;SDS011;7983;50.744;7.086;2023-02-02T17:49:18;2.63;;;1.80;;
15764;SDS011;7983;50.744;7.086;2023-02-02T17:51:46;4.47;;;2.03;;
15764;SDS011;7983;50.744;7.086;2023-02-02T17:54:14;4.70;;;2.70;;
15764;SDS011;7983;50.744;7.086;2023-02-02T17:56:41;5.20;;;2.40;;
15764;SDS011;7983;50.744;7.086;2023-02-02T17:59:07;4.82;;;2.30;;
15764;SDS011;7983;50.744;7.086;2023-02-02T18:01:36;4.18;;;1.95;;
15764;SDS011;7983;50.744;7.086;2023-02-02T18:04:05;4.85;;;1.90;;
15764;SDS011;7983;50.744;7.086;2023-02-02T18:06:34;4.47;;;2.17;;
15764;SDS011;7983;50.744;7.086;2023-02-02T18:09:01;2.72;;;1.88;;
15764;SDS011;7983;50.744;7.086;2023-02-02T18:11:32;4.05;;;2.13;;
15764;SDS011;7983;50.744;7.086;2023-02-02T18:13:57;4.53;;;2.05;;
15764;SDS011;7983;50.744;7.086;2023-02-02T18:16:25;3.53;;;1.90;;
15764;SDS011;7983;50.744;7.086;2023-02-02T18:18:51;6.75;;;2.53;;
15764;SDS011;7983;50.744;7.086;2023-02-02T18:21:21;4.30;;;2.20;;
15764;SDS011;7983;50.744;7.086;2023-02-02T18:23:50;6.03;;;2.20;;
15764;SDS011;7983;50.744;7.086;2023-02-02T18:26:19;4.40;;;2.40;;
15764;SDS011;7983;50.744;7.086;2023-02-02T18:28:46;4.85;;;1.90;;
15764;SDS011;7983;50.744;7.086;2023-02-02T18:31:14;2.33;;;1.77;;
15764;SDS011;7983;50.744;7.086;2023-02-02T18:33:45;5.88;;;2.33;;
15764;SDS011;7983;50.744;7.086;2023-02-02T18:36:12;3.80;;;2.00;;
15764;SDS011;7983;50.744;7.086;2023-02-02T18:38:44;3.15;;;2.03;;
15764;SDS011;7983;50.744;7.086;2023-02-02T18:41:24;3.67;;;2.10;;
15764;SDS011;7983;50.744;7.086;2023-02-02T18:43:52;3.22;;;2.08;;
15764;SDS011;7983;50.744;7.086;2023-02-02T18:46:18;4.20;;;1.95;;